sensor_id;sensor_type;location;lat;lon;timestamp;P1;durP1;ratioP1;P2;durP2;ratioP2
46713;SDS011;32445;51.376;10.874;2023-06-01T00:01:22;3.07;;;1.13;;
46713;SDS011;32445;51.376;10.874;2023-06-01T00:04:23;1.30;;;1.20;;
46713;SDS011;32445;51.376;10.874;2023-06-01T00:07:23;2.57;;;1.13;;
46713;SDS011;32445;51.376;10.874;2023-06-01T00:10:23;3.40;;;1.00;;
46713;SDS011;32445;51.376;10.874;2023-06-01T00:13:24;1.40;;;1.20;;
46713;SDS011;32445;51.376;10.874;2023-06-01T00:16:24;1.70;;;1.07;;
46713;SDS011;32445;51.376;10.874;2023-06-01T00:19:25;1.70;;;1.20;;
46713;SDS011;32445;51.376;10.874;2023-06-01T00:22:27;2.28;;;1.45;;
46713;SDS011;32445;51.376;10.874;2023-06-01T00:25:34;2.33;;;1.10;;
46713;SDS011;32445;51.376;10.874;2023-06-01T00:28:34;1.13;;;1.00;;
46713;SDS011;32445;51.376;10.874;2023-06-01T00:31:35;1.73;;;1.20;;
46713;SDS011;32445;51.376;10.874;2023-06-01T00:34:35;1.73;;;1.20;;
46713;SDS011;32445;51.376;10.874;2023-06-01T00:37:35;1.80;;;1.47;;
46713;SDS011;32445;51.376;10.874;2023-06-01T00:40:36;3.27;;;1.23;;
46713;SDS011;32445;51.376;10.874;2023-06-01T00:43:36;4.37;;;1.50;;
46713;SDS011;32445;51.376;10.874;2023-06-01T00:46:37;3.07;;;1.30;;
46713;SDS011;32445;51.376;10.874;2023-06-01T00:49:37;1.80;;;1.20;;
46713;SDS011;32445;51.376;10.874;2023-06-01T00:52:38;2.07;;;1.30;;
46713;SDS011;32445;51.376;10.874;2023-06-01T00:55:39;4.20;;;1.60;;
46713;SDS011;32445;51.376;10.874;2023-06-01T00:58:39;3.37;;;1.30;;
46713;SDS011;32445;51.376;10.874;2023-06-01T01:01:40;1.63;;;1.35;;
46713;SDS011;32445;51.376;10.874;2023-06-01T01:04:43;2.30;;;1.40;;
46713;SDS011;32445;51.376;10.874;2023-06-01T01:17:50;2.15;;;1.50;;
46713;SDS011;32445;51.376;10.874;2023-06-01T01:20:57;2.28;;;1.30;;
46713;SDS011;32445;51.376;10.874;2023-06-01T01:24:05;2.58;;;1.75;;
46713;SDS011;32445;51.376;10.874;2023-06-01T01:30:47;3.58;;;1.70;;
46713;SDS011;32445;51.376;10.874;2023-06-01T01:33:51;2.55;;;1.70;;
46713;SDS011;32445;51.376;10.874;2023-06-01T01:36:55;2.17;;;1.30;;
46713;SDS011;32445;51.376;10.874;2023-06-01T01:39:56;1.40;;;1.30;;
46713;SDS011;32445;51.376;10.874;2023-06-01T01:42:56;1.97;;;1.53;;
46713;SDS011;32445;51.376;10.874;2023-06-01T01:46:07;1.37;;;1.27;;
46713;SDS011;32445;51.376;10.874;2023-06-01T01:49:14;3.75;;;1.50;;
46713;SDS011;32445;51.376;10.874;2023-06-01T01:52:21;1.80;;;1.35;;
46713;SDS011;32445;51.376;10.874;2023-06-01T01:55:26;2.00;;;1.42;;
46713;SDS011;32445;51.376;10.874;2023-06-01T02:01:28;1.83;;;1.33;;
46713;SDS011;32445;51.376;10.874;2023-06-01T02:04:30;2.90;;;1.30;;
46713;SDS011;32445;51.376;10.874;2023-06-01T02:07:30;3.37;;;1.50;;
46713;SDS011;32445;51.376;10.874;2023-06-01T02:10:33;1.58;;;1.30;;
46713;SDS011;32445;51.376;10.874;2023-06-01T02:13:34;1.87;;;1.73;;
46713;SDS011;32445;51.376;10.874;2023-06-01T02:16:34;1.97;;;1.53;;
46713;SDS011;32445;51.376;10.874;2023-06-01T02:19:35;1.83;;;1.45;;
46713;SDS011;32445;51.376;10.874;2023-06-01T02:22:36;2.00;;;1.50;;
46713;SDS011;32445;51.376;10.874;2023-06-01T02:25:36;2.53;;;1.73;;
46713;SDS011;32445;51.376;10.874;2023-06-01T02:28:37;1.43;;;1.33;;
46713;SDS011;32445;51.376;10.874;2023-06-01T02:31:41;1.95;;;1.23;;
46713;SDS011;32445;51.376;10.874;2023-06-01T02:34:41;1.40;;;1.27;;
46713;SDS011;32445;51.376;10.874;2023-06-01T02:37:41;3.40;;;1.50;;
46713;SDS011;32445;51.376;10.874;2023-06-01T02:40:42;2.50;;;1.50;;
46713;SDS011;32445;51.376;10.874;2023-06-01T02:43:42;1.30;;;1.20;;
46713;SDS011;32445;51.376;10.874;2023-06-01T02:46:43;3.27;;;1.43;;
46713;SDS011;32445;51.376;10.874;2023-06-01T02:49:43;1.93;;;1.40;;
46713;SDS011;32445;51.376;10.874;2023-06-01T02:52:44;3.60;;;1.50;;
46713;SDS011;32445;51.376;10.874;2023-06-01T02:55:44;3.77;;;1.57;;
46713;SDS011;32445;51.376;10.874;2023-06-01T02:58:44;2.87;;;1.77;;
46713;SDS011;32445;51.376;10.874;2023-06-01T03:01:46;1.98;;;1.60;;
46713;SDS011;32445;51.376;10.874;2023-06-01T03:04:46;2.47;;;1.70;;
46713;SDS011;32445;51.376;10.874;2023-06-01T03:07:49;3.28;;;1.30;;
46713;SDS011;32445;51.376;10.874;2023-06-01T03:10:50;2.90;;;1.52;;
46713;SDS011;32445;51.376;10.874;2023-06-01T03:13:50;2.13;;;1.80;;
46713;SDS011;32445;51.376;10.874;2023-06-01T03:16:50;5.47;;;1.80;;
46713;SDS011;32445;51.376;10.874;2023-06-01T03:19:51;1.70;;;1.50;;
46713;SDS011;32445;51.376;10.874;2023-06-01T03:22:51;3.27;;;1.77;;
46713;SDS011;32445;51.376;10.874;2023-06-01T03:25:52;5.90;;;1.93;;
46713;SDS011;32445;51.376;10.874;2023-06-01T03:28:52;2.47;;;1.80;;
46713;SDS011;32445;51.376;10.874;2023-06-01T03:31:52;1.93;;;1.73;;
46713;SDS011;32445;51.376;10.874;2023-06-01T03:34:53;5.20;;;2.77;;
46713;SDS011;32445;51.376;10.874;2023-06-01T03:37:53;2.03;;;1.60;;
46713;SDS011;32445;51.376;10.874;2023-06-01T03:40:53;3.37;;;2.50;;
46713;SDS011;32445;51.376;10.874;2023-06-01T03:43:54;3.70;;;1.90;;
46713;SDS011;32445;51.376;10.874;2023-06-01T03:46:54;1.90;;;1.70;;
46713;SDS011;32445;51.376;10.874;2023-06-01T03:49:55;2.73;;;1.90;;
46713;SDS011;32445;51.376;10.874;2023-06-01T03:52:55;3.28;;;1.65;;
46713;SDS011;32445;51.376;10.874;2023-06-01T03:55:55;3.80;;;2.23;;
46713;SDS011;32445;51.376;10.874;2023-06-01T03:58:56;4.63;;;2.43;;
46713;SDS011;32445;51.376;10.874;2023-06-01T04:01:56;5.28;;;2.08;;
46713;SDS011;32445;51.376;10.874;2023-06-01T04:04:57;2.87;;;2.27;;
46713;SDS011;32445;51.376;10.874;2023-06-01T04:07:58;2.37;;;1.90;;
46713;SDS011;32445;51.376;10.874;2023-06-01T04:10:58;15.17;;;2.53;;
46713;SDS011;32445;51.376;10.874;2023-06-01T04:13:59;3.40;;;1.90;;
46713;SDS011;32445;51.376;10.874;2023-06-01T04:16:59;2.43;;;1.60;;
46713;SDS011;32445;51.376;10.874;2023-06-01T04:20:00;1.80;;;1.60;;
46713;SDS011;32445;51.376;10.874;2023-06-01T04:23:00;2.77;;;1.90;;
46713;SDS011;32445;51.376;10.874;2023-06-01T04:26:01;2.67;;;1.90;;
46713;SDS011;32445;51.376;10.874;2023-06-01T04:29:02;4.13;;;2.20;;
46713;SDS011;32445;51.376;10.874;2023-06-01T04:32:03;3.38;;;2.25;;
46713;SDS011;32445;51.376;10.874;2023-06-01T04:35:04;3.20;;;2.00;;
46713;SDS011;32445;51.376;10.874;2023-06-01T04:38:05;3.50;;;2.38;;
46713;SDS011;32445;51.376;10.874;2023-06-01T04:41:06;3.23;;;2.07;;
46713;SDS011;32445;51.376;10.874;2023-06-01T04:44:07;2.40;;;2.20;;
46713;SDS011;32445;51.376;10.874;2023-06-01T04:47:08;7.20;;;2.20;;
46713;SDS011;32445;51.376;10.874;2023-06-01T04:50:09;2.60;;;2.07;;
46713;SDS011;32445;51.376;10.874;2023-06-01T04:53:11;2.90;;;2.20;;
46713;SDS011;32445;51.376;10.874;2023-06-01T04:56:11;13.30;;;2.80;;
46713;SDS011;32445;51.376;10.874;2023-06-01T04:59:12;3.03;;;2.83;;
46713;SDS011;32445;51.376;10.874;2023-06-01T05:02:13;4.17;;;2.70;;
46713;SDS011;32445;51.376;10.874;2023-06-01T05:05:14;3.28;;;3.00;;
46713;SDS011;32445;51.376;10.874;2023-06-01T05:08:15;7.00;;;3.42;;
46713;SDS011;32445;51.376;10.874;2023-06-01T05:11:16;4.07;;;2.97;;
46713;SDS011;32445;51.376;10.874;2023-06-01T05:14:16;4.50;;;2.88;;
46713;SDS011;32445;51.376;10.874;2023-06-01T05:17:16;3.50;;;2.63;;
46713;SDS011;32445;51.376;10.874;2023-06-01T05:20:17;8.75;;;3.20;;
46713;SDS011;32445;51.376;10.874;2023-06-01T05:23:17;6.03;;;2.40;;
46713;SDS011;32445;51.376;10.874;2023-06-01T05:26:17;5.00;;;2.65;;
46713;SDS011;32445;51.376;10.874;2023-06-01T05:29:18;10.32;;;3.03;;
46713;SDS011;32445;51.376;10.874;2023-06-01T05:32:18;8.33;;;4.77;;
46713;SDS011;32445;51.376;10.874;2023-06-01T05:35:19;7.40;;;3.77;;
46713;SDS011;32445;51.376;10.874;2023-06-01T05:38:20;9.43;;;5.30;;
46713;SDS011;32445;51.376;10.874;2023-06-01T05:41:20;6.43;;;4.97;;
46713;SDS011;32445;51.376;10.874;2023-06-01T05:44:21;9.17;;;4.60;;
46713;SDS011;32445;51.376;10.874;2023-06-01T05:47:22;7.90;;;4.43;;
46713;SDS011;32445;51.376;10.874;2023-06-01T05:50:22;7.30;;;4.63;;
46713;SDS011;32445;51.376;10.874;2023-06-01T05:53:22;11.87;;;6.00;;
46713;SDS011;32445;51.376;10.874;2023-06-01T05:59:26;14.33;;;5.60;;
46713;SDS011;32445;51.376;10.874;2023-06-01T06:02:26;9.35;;;6.03;;
46713;SDS011;32445;51.376;10.874;2023-06-01T06:05:26;10.40;;;6.33;;
46713;SDS011;32445;51.376;10.874;2023-06-01T06:08:27;8.20;;;6.17;;
46713;SDS011;32445;51.376;10.874;2023-06-01T06:11:27;11.90;;;5.83;;
46713;SDS011;32445;51.376;10.874;2023-06-01T06:14:28;14.90;;;6.47;;
46713;SDS011;32445;51.376;10.874;2023-06-01T06:17:28;8.90;;;7.27;;
46713;SDS011;32445;51.376;10.874;2023-06-01T06:20:28;9.27;;;6.50;;
46713;SDS011;32445;51.376;10.874;2023-06-01T06:23:29;9.37;;;8.00;;
46713;SDS011;32445;51.376;10.874;2023-06-01T06:26:30;9.10;;;7.83;;
46713;SDS011;32445;51.376;10.874;2023-06-01T06:29:30;10.07;;;8.00;;
46713;SDS011;32445;51.376;10.874;2023-06-01T06:32:31;14.70;;;9.57;;
46713;SDS011;32445;51.376;10.874;2023-06-01T06:35:31;11.13;;;8.40;;
46713;SDS011;32445;51.376;10.874;2023-06-01T06:38:31;13.13;;;8.27;;
46713;SDS011;32445;51.376;10.874;2023-06-01T06:41:32;15.07;;;9.35;;
46713;SDS011;32445;51.376;10.874;2023-06-01T06:44:33;9.83;;;8.93;;
46713;SDS011;32445;51.376;10.874;2023-06-01T06:47:33;11.30;;;9.47;;
46713;SDS011;32445;51.376;10.874;2023-06-01T06:50:34;10.47;;;9.40;;
46713;SDS011;32445;51.376;10.874;2023-06-01T06:53:35;9.38;;;8.57;;
46713;SDS011;32445;51.376;10.874;2023-06-01T06:56:36;9.93;;;9.03;;
46713;SDS011;32445;51.376;10.874;2023-06-01T06:59:36;10.77;;;9.87;;
46713;SDS011;32445;51.376;10.874;2023-06-01T07:02:36;12.50;;;10.00;;
46713;SDS011;32445;51.376;10.874;2023-06-01T07:05:37;10.67;;;8.90;;
46713;SDS011;32445;51.376;10.874;2023-06-01T07:08:37;12.23;;;8.63;;
46713;SDS011;32445;51.376;10.874;2023-06-01T07:11:40;11.10;;;9.80;;
46713;SDS011;32445;51.376;10.874;2023-06-01T07:14:42;10.45;;;9.45;;
46713;SDS011;32445;51.376;10.874;2023-06-01T07:17:43;10.03;;;9.10;;
46713;SDS011;32445;51.376;10.874;2023-06-01T07:20:43;9.90;;;9.00;;
46713;SDS011;32445;51.376;10.874;2023-06-01T07:23:44;11.00;;;10.07;;
46713;SDS011;32445;51.376;10.874;2023-06-01T07:26:45;9.18;;;8.27;;
46713;SDS011;32445;51.376;10.874;2023-06-01T07:29:46;9.53;;;8.73;;
46713;SDS011;32445;51.376;10.874;2023-06-01T07:32:46;12.37;;;9.53;;
46713;SDS011;32445;51.376;10.874;2023-06-01T07:35:47;10.57;;;8.87;;
46713;SDS011;32445;51.376;10.874;2023-06-01T07:38:47;12.43;;;8.73;;
46713;SDS011;32445;51.376;10.874;2023-06-01T07:41:48;10.17;;;8.67;;
46713;SDS011;32445;51.376;10.874;2023-06-01T07:44:50;9.32;;;8.45;;
46713;SDS011;32445;51.376;10.874;2023-06-01T07:47:51;11.10;;;10.13;;
46713;SDS011;32445;51.376;10.874;2023-06-01T07:50:51;10.53;;;9.77;;
46713;SDS011;32445;51.376;10.874;2023-06-01T07:53:52;10.40;;;9.53;;
46713;SDS011;32445;51.376;10.874;2023-06-01T07:56:55;10.23;;;9.52;;
46713;SDS011;32445;51.376;10.874;2023-06-01T07:59:56;9.82;;;8.95;;
46713;SDS011;32445;51.376;10.874;2023-06-01T08:02:57;13.50;;;10.80;;
46713;SDS011;32445;51.376;10.874;2023-06-01T08:05:59;10.98;;;10.02;;
46713;SDS011;32445;51.376;10.874;2023-06-01T08:09:02;11.25;;;10.25;;
46713;SDS011;32445;51.376;10.874;2023-06-01T08:12:03;11.80;;;10.80;;
46713;SDS011;32445;51.376;10.874;2023-06-01T08:15:04;10.60;;;9.70;;
46713;SDS011;32445;51.376;10.874;2023-06-01T08:21:06;11.15;;;10.07;;
46713;SDS011;32445;51.376;10.874;2023-06-01T08:24:09;14.70;;;9.90;;
46713;SDS011;32445;51.376;10.874;2023-06-01T08:27:20;11.00;;;10.15;;
46713;SDS011;32445;51.376;10.874;2023-06-01T08:30:24;10.88;;;9.88;;
46713;SDS011;32445;51.376;10.874;2023-06-01T08:33:25;10.75;;;9.85;;
46713;SDS011;32445;51.376;10.874;2023-06-01T08:36:26;12.67;;;11.43;;
46713;SDS011;32445;51.376;10.874;2023-06-01T08:39:26;11.23;;;10.23;;
46713;SDS011;32445;51.376;10.874;2023-06-01T08:42:30;11.60;;;10.37;;
46713;SDS011;32445;51.376;10.874;2023-06-01T08:45:36;14.60;;;9.57;;
46713;SDS011;32445;51.376;10.874;2023-06-01T08:48:38;10.43;;;9.48;;
46713;SDS011;32445;51.376;10.874;2023-06-01T08:57:42;9.85;;;8.65;;
46713;SDS011;32445;51.376;10.874;2023-06-01T09:00:43;10.43;;;9.13;;
46713;SDS011;32445;51.376;10.874;2023-06-01T09:03:47;9.05;;;8.40;;
46713;SDS011;32445;51.376;10.874;2023-06-01T09:06:48;8.10;;;7.40;;
46713;SDS011;32445;51.376;10.874;2023-06-01T09:09:49;8.23;;;7.53;;
46713;SDS011;32445;51.376;10.874;2023-06-01T09:12:53;9.53;;;7.73;;
46713;SDS011;32445;51.376;10.874;2023-06-01T09:15:54;8.13;;;7.32;;
46713;SDS011;32445;51.376;10.874;2023-06-01T09:18:55;9.93;;;9.03;;
46713;SDS011;32445;51.376;10.874;2023-06-01T09:21:56;9.53;;;8.80;;
46713;SDS011;32445;51.376;10.874;2023-06-01T09:25:01;9.18;;;8.48;;
46713;SDS011;32445;51.376;10.874;2023-06-01T09:28:02;11.75;;;7.55;;
46713;SDS011;32445;51.376;10.874;2023-06-01T09:31:02;10.07;;;9.02;;
46713;SDS011;32445;51.376;10.874;2023-06-01T09:34:03;8.67;;;7.87;;
46713;SDS011;32445;51.376;10.874;2023-06-01T09:37:05;9.45;;;8.63;;
46713;SDS011;32445;51.376;10.874;2023-06-01T09:40:19;13.30;;;11.90;;
46713;SDS011;32445;51.376;10.874;2023-06-01T09:43:20;12.18;;;11.25;;
46713;SDS011;32445;51.376;10.874;2023-06-01T09:49:26;13.18;;;11.82;;
46713;SDS011;32445;51.376;10.874;2023-06-01T09:52:27;11.18;;;10.27;;
46713;SDS011;32445;51.376;10.874;2023-06-01T09:55:30;14.20;;;12.97;;
46713;SDS011;32445;51.376;10.874;2023-06-01T09:58:31;16.45;;;13.18;;
46713;SDS011;32445;51.376;10.874;2023-06-01T10:01:37;13.32;;;12.27;;
46713;SDS011;32445;51.376;10.874;2023-06-01T10:04:39;12.93;;;11.93;;
46713;SDS011;32445;51.376;10.874;2023-06-01T10:07:41;13.88;;;12.05;;
46713;SDS011;32445;51.376;10.874;2023-06-01T10:13:43;12.23;;;11.15;;
46713;SDS011;32445;51.376;10.874;2023-06-01T10:16:44;13.30;;;11.97;;
46713;SDS011;32445;51.376;10.874;2023-06-01T10:19:45;20.87;;;12.67;;
46713;SDS011;32445;51.376;10.874;2023-06-01T10:22:45;13.53;;;12.37;;
46713;SDS011;32445;51.376;10.874;2023-06-01T10:25:47;15.23;;;13.67;;
46713;SDS011;32445;51.376;10.874;2023-06-01T10:28:50;14.52;;;13.13;;
46713;SDS011;32445;51.376;10.874;2023-06-01T10:31:52;14.85;;;13.52;;
46713;SDS011;32445;51.376;10.874;2023-06-01T10:34:53;13.73;;;12.57;;
46713;SDS011;32445;51.376;10.874;2023-06-01T10:41:27;13.75;;;12.45;;
46713;SDS011;32445;51.376;10.874;2023-06-01T10:50:42;15.37;;;13.80;;
46713;SDS011;32445;51.376;10.874;2023-06-01T10:53:43;16.20;;;14.80;;
46713;SDS011;32445;51.376;10.874;2023-06-01T10:56:43;16.10;;;14.50;;
46713;SDS011;32445;51.376;10.874;2023-06-01T10:59:44;15.67;;;14.17;;
46713;SDS011;32445;51.376;10.874;2023-06-01T11:02:46;12.90;;;12.10;;
46713;SDS011;32445;51.376;10.874;2023-06-01T11:05:55;16.15;;;13.40;;
46713;SDS011;32445;51.376;10.874;2023-06-01T11:08:56;15.07;;;13.83;;
46713;SDS011;32445;51.376;10.874;2023-06-01T11:11:58;17.30;;;11.95;;
46713;SDS011;32445;51.376;10.874;2023-06-01T11:15:09;14.15;;;12.68;;
46713;SDS011;32445;51.376;10.874;2023-06-01T11:21:41;17.23;;;12.13;;
46713;SDS011;32445;51.376;10.874;2023-06-01T11:24:43;13.27;;;10.40;;
46713;SDS011;32445;51.376;10.874;2023-06-01T11:27:51;12.25;;;10.98;;
46713;SDS011;32445;51.376;10.874;2023-06-01T11:30:54;11.35;;;10.32;;
46713;SDS011;32445;51.376;10.874;2023-06-01T11:33:56;9.80;;;8.90;;
46713;SDS011;32445;51.376;10.874;2023-06-01T11:36:57;9.82;;;8.93;;
46713;SDS011;32445;51.376;10.874;2023-06-01T11:40:05;8.00;;;7.40;;
46713;SDS011;32445;51.376;10.874;2023-06-01T11:43:08;8.40;;;7.68;;
46713;SDS011;32445;51.376;10.874;2023-06-01T11:46:08;8.50;;;7.87;;
46713;SDS011;32445;51.376;10.874;2023-06-01T11:49:11;7.25;;;6.75;;
46713;SDS011;32445;51.376;10.874;2023-06-01T11:52:14;9.95;;;7.78;;
46713;SDS011;32445;51.376;10.874;2023-06-01T11:55:15;10.98;;;8.02;;
46713;SDS011;32445;51.376;10.874;2023-06-01T11:58:20;10.40;;;8.88;;
46713;SDS011;32445;51.376;10.874;2023-06-01T12:01:28;8.48;;;7.90;;
46713;SDS011;32445;51.376;10.874;2023-06-01T12:04:28;9.20;;;7.82;;
46713;SDS011;32445;51.376;10.874;2023-06-01T12:07:28;8.70;;;6.80;;
46713;SDS011;32445;51.376;10.874;2023-06-01T12:10:29;7.03;;;6.43;;
46713;SDS011;32445;51.376;10.874;2023-06-01T12:13:30;6.80;;;6.20;;
46713;SDS011;32445;51.376;10.874;2023-06-01T12:19:53;7.10;;;5.53;;
46713;SDS011;32445;51.376;10.874;2023-06-01T12:22:53;6.83;;;6.13;;
46713;SDS011;32445;51.376;10.874;2023-06-01T12:25:57;6.05;;;5.55;;
46713;SDS011;32445;51.376;10.874;2023-06-01T12:29:00;11.40;;;7.13;;
46713;SDS011;32445;51.376;10.874;2023-06-01T12:32:01;6.22;;;5.65;;
46713;SDS011;32445;51.376;10.874;2023-06-01T12:35:03;8.10;;;4.72;;
46713;SDS011;32445;51.376;10.874;2023-06-01T12:38:06;7.65;;;5.30;;
46713;SDS011;32445;51.376;10.874;2023-06-01T12:41:10;5.22;;;4.70;;
46713;SDS011;32445;51.376;10.874;2023-06-01T12:44:17;8.32;;;4.82;;
46713;SDS011;32445;51.376;10.874;2023-06-01T12:47:18;5.10;;;4.53;;
46713;SDS011;32445;51.376;10.874;2023-06-01T12:50:19;8.88;;;4.63;;
46713;SDS011;32445;51.376;10.874;2023-06-01T12:53:19;5.32;;;4.18;;
46713;SDS011;32445;51.376;10.874;2023-06-01T12:56:20;4.82;;;4.25;;
46713;SDS011;32445;51.376;10.874;2023-06-01T12:59:20;7.85;;;4.25;;
46713;SDS011;32445;51.376;10.874;2023-06-01T13:05:21;5.82;;;4.30;;
46713;SDS011;32445;51.376;10.874;2023-06-01T13:11:22;7.53;;;3.50;;
46713;SDS011;32445;51.376;10.874;2023-06-01T13:14:22;4.07;;;3.55;;
46713;SDS011;32445;51.376;10.874;2023-06-01T13:17:23;5.85;;;3.22;;
46713;SDS011;32445;51.376;10.874;2023-06-01T13:20:24;5.43;;;3.28;;
46713;SDS011;32445;51.376;10.874;2023-06-01T13:23:25;6.28;;;3.08;;
46713;SDS011;32445;51.376;10.874;2023-06-01T13:26:27;3.20;;;2.90;;
46713;SDS011;32445;51.376;10.874;2023-06-01T13:29:27;5.47;;;3.45;;
46713;SDS011;32445;51.376;10.874;2023-06-01T13:35:29;3.83;;;3.00;;
46713;SDS011;32445;51.376;10.874;2023-06-01T13:41:31;10.23;;;2.75;;
46713;SDS011;32445;51.376;10.874;2023-06-01T13:47:32;7.67;;;3.47;;
46713;SDS011;32445;51.376;10.874;2023-06-01T13:50:32;8.10;;;3.22;;
46713;SDS011;32445;51.376;10.874;2023-06-01T13:56:33;8.30;;;2.90;;
46713;SDS011;32445;51.376;10.874;2023-06-01T14:02:35;4.20;;;2.67;;
46713;SDS011;32445;51.376;10.874;2023-06-01T14:08:36;4.83;;;3.10;;
46713;SDS011;32445;51.376;10.874;2023-06-01T14:14:40;7.47;;;2.90;;
46713;SDS011;32445;51.376;10.874;2023-06-01T14:17:41;4.60;;;2.72;;
46713;SDS011;32445;51.376;10.874;2023-06-01T14:20:41;7.57;;;3.90;;
46713;SDS011;32445;51.376;10.874;2023-06-01T14:26:44;8.38;;;3.63;;
46713;SDS011;32445;51.376;10.874;2023-06-01T14:29:45;13.98;;;3.20;;
46713;SDS011;32445;51.376;10.874;2023-06-01T14:35:45;3.57;;;3.23;;
46713;SDS011;32445;51.376;10.874;2023-06-01T14:38:46;9.45;;;2.72;;
46713;SDS011;32445;51.376;10.874;2023-06-01T14:44:46;4.20;;;3.03;;
46713;SDS011;32445;51.376;10.874;2023-06-01T14:50:47;5.45;;;2.50;;
46713;SDS011;32445;51.376;10.874;2023-06-01T14:56:49;13.70;;;2.70;;
46713;SDS011;32445;51.376;10.874;2023-06-01T15:02:50;2.20;;;1.83;;
46713;SDS011;32445;51.376;10.874;2023-06-01T15:05:50;3.42;;;1.92;;
46713;SDS011;32445;51.376;10.874;2023-06-01T15:08:51;4.65;;;2.33;;
46713;SDS011;32445;51.376;10.874;2023-06-01T15:11:52;5.55;;;2.00;;
46713;SDS011;32445;51.376;10.874;2023-06-01T15:14:52;11.48;;;2.67;;
46713;SDS011;32445;51.376;10.874;2023-06-01T15:17:52;7.03;;;2.80;;
46713;SDS011;32445;51.376;10.874;2023-06-01T15:20:55;4.68;;;2.47;;
46713;SDS011;32445;51.376;10.874;2023-06-01T15:23:55;3.22;;;2.92;;
46713;SDS011;32445;51.376;10.874;2023-06-01T15:26:55;2.92;;;2.47;;
46713;SDS011;32445;51.376;10.874;2023-06-01T15:32:56;14.43;;;3.30;;
46713;SDS011;32445;51.376;10.874;2023-06-01T15:35:57;2.60;;;2.40;;
46713;SDS011;32445;51.376;10.874;2023-06-01T15:38:57;9.02;;;2.65;;
46713;SDS011;32445;51.376;10.874;2023-06-01T15:41:58;3.85;;;2.85;;
46713;SDS011;32445;51.376;10.874;2023-06-01T15:44:58;6.72;;;2.70;;
46713;SDS011;32445;51.376;10.874;2023-06-01T15:47:58;4.73;;;3.07;;
46713;SDS011;32445;51.376;10.874;2023-06-01T15:50:59;5.75;;;3.28;;
46713;SDS011;32445;51.376;10.874;2023-06-01T15:53:59;7.15;;;3.15;;
46713;SDS011;32445;51.376;10.874;2023-06-01T15:57:00;3.92;;;3.53;;
46713;SDS011;32445;51.376;10.874;2023-06-01T16:00:01;3.85;;;3.55;;
46713;SDS011;32445;51.376;10.874;2023-06-01T16:03:02;6.43;;;2.72;;
46713;SDS011;32445;51.376;10.874;2023-06-01T16:06:03;4.20;;;2.83;;
46713;SDS011;32445;51.376;10.874;2023-06-01T16:09:12;5.63;;;3.70;;
46713;SDS011;32445;51.376;10.874;2023-06-01T16:12:20;2.92;;;2.72;;
46713;SDS011;32445;51.376;10.874;2023-06-01T16:15:20;3.10;;;2.80;;
46713;SDS011;32445;51.376;10.874;2023-06-01T16:18:21;6.70;;;3.08;;
46713;SDS011;32445;51.376;10.874;2023-06-01T16:21:21;4.45;;;3.65;;
46713;SDS011;32445;51.376;10.874;2023-06-01T16:24:22;8.27;;;3.73;;
46713;SDS011;32445;51.376;10.874;2023-06-01T16:27:22;4.23;;;3.57;;
46713;SDS011;32445;51.376;10.874;2023-06-01T16:30:22;6.77;;;3.90;;
46713;SDS011;32445;51.376;10.874;2023-06-01T16:33:23;5.93;;;3.80;;
46713;SDS011;32445;51.376;10.874;2023-06-01T16:36:24;8.23;;;4.45;;
46713;SDS011;32445;51.376;10.874;2023-06-01T16:39:24;6.10;;;4.50;;
46713;SDS011;32445;51.376;10.874;2023-06-01T16:42:25;5.40;;;3.88;;
46713;SDS011;32445;51.376;10.874;2023-06-01T16:45:26;11.18;;;4.88;;
46713;SDS011;32445;51.376;10.874;2023-06-01T16:48:26;10.75;;;4.32;;
46713;SDS011;32445;51.376;10.874;2023-06-01T16:51:27;5.13;;;4.50;;
46713;SDS011;32445;51.376;10.874;2023-06-01T16:54:27;12.23;;;5.75;;
46713;SDS011;32445;51.376;10.874;2023-06-01T16:57:28;13.38;;;6.68;;
46713;SDS011;32445;51.376;10.874;2023-06-01T17:00:28;4.55;;;4.25;;
46713;SDS011;32445;51.376;10.874;2023-06-01T17:03:29;5.53;;;4.85;;
46713;SDS011;32445;51.376;10.874;2023-06-01T17:06:30;5.10;;;3.97;;
46713;SDS011;32445;51.376;10.874;2023-06-01T17:09:31;10.98;;;7.13;;
46713;SDS011;32445;51.376;10.874;2023-06-01T17:12:31;6.20;;;3.40;;
46713;SDS011;32445;51.376;10.874;2023-06-01T17:15:32;3.77;;;3.47;;
46713;SDS011;32445;51.376;10.874;2023-06-01T17:18:32;5.00;;;4.60;;
46713;SDS011;32445;51.376;10.874;2023-06-01T17:21:33;7.40;;;4.67;;
46713;SDS011;32445;51.376;10.874;2023-06-01T17:24:36;4.88;;;3.70;;
46713;SDS011;32445;51.376;10.874;2023-06-01T17:27:37;4.82;;;4.30;;
46713;SDS011;32445;51.376;10.874;2023-06-01T17:30:40;4.25;;;3.30;;
46713;SDS011;32445;51.376;10.874;2023-06-01T17:33:40;4.67;;;3.37;;
46713;SDS011;32445;51.376;10.874;2023-06-01T17:36:41;4.03;;;3.63;;
46713;SDS011;32445;51.376;10.874;2023-06-01T17:39:42;3.45;;;3.20;;
46713;SDS011;32445;51.376;10.874;2023-06-01T17:42:42;2.67;;;2.47;;
46713;SDS011;32445;51.376;10.874;2023-06-01T17:45:43;7.10;;;2.50;;
46713;SDS011;32445;51.376;10.874;2023-06-01T17:48:43;2.97;;;2.50;;
46713;SDS011;32445;51.376;10.874;2023-06-01T17:51:43;2.93;;;2.57;;
46713;SDS011;32445;51.376;10.874;2023-06-01T17:54:44;4.67;;;2.70;;
46713;SDS011;32445;51.376;10.874;2023-06-01T17:57:45;6.70;;;3.13;;
46713;SDS011;32445;51.376;10.874;2023-06-01T18:00:45;2.43;;;2.23;;
46713;SDS011;32445;51.376;10.874;2023-06-01T18:03:46;3.10;;;2.83;;
46713;SDS011;32445;51.376;10.874;2023-06-01T18:06:46;3.70;;;2.73;;
46713;SDS011;32445;51.376;10.874;2023-06-01T18:09:47;3.05;;;2.40;;
46713;SDS011;32445;51.376;10.874;2023-06-01T18:12:49;2.78;;;2.35;;
46713;SDS011;32445;51.376;10.874;2023-06-01T18:15:49;4.50;;;2.43;;
46713;SDS011;32445;51.376;10.874;2023-06-01T18:18:52;3.75;;;2.35;;
46713;SDS011;32445;51.376;10.874;2023-06-01T18:21:53;6.63;;;2.70;;
46713;SDS011;32445;51.376;10.874;2023-06-01T18:24:53;3.00;;;2.57;;
46713;SDS011;32445;51.376;10.874;2023-06-01T18:27:53;2.67;;;2.47;;
46713;SDS011;32445;51.376;10.874;2023-06-01T18:30:54;2.60;;;2.40;;
46713;SDS011;32445;51.376;10.874;2023-06-01T18:33:54;2.20;;;2.00;;
46713;SDS011;32445;51.376;10.874;2023-06-01T18:36:55;4.50;;;2.77;;
46713;SDS011;32445;51.376;10.874;2023-06-01T18:39:55;2.43;;;2.27;;
46713;SDS011;32445;51.376;10.874;2023-06-01T18:42:56;2.80;;;2.47;;
46713;SDS011;32445;51.376;10.874;2023-06-01T18:45:56;2.50;;;2.30;;
46713;SDS011;32445;51.376;10.874;2023-06-01T18:48:57;3.63;;;2.30;;
46713;SDS011;32445;51.376;10.874;2023-06-01T18:51:57;2.60;;;2.40;;
46713;SDS011;32445;51.376;10.874;2023-06-01T18:55:00;2.33;;;2.08;;
46713;SDS011;32445;51.376;10.874;2023-06-01T18:58:00;2.27;;;2.07;;
46713;SDS011;32445;51.376;10.874;2023-06-01T19:01:01;5.00;;;1.93;;
46713;SDS011;32445;51.376;10.874;2023-06-01T19:04:01;3.73;;;2.50;;
46713;SDS011;32445;51.376;10.874;2023-06-01T19:07:03;2.90;;;2.55;;
46713;SDS011;32445;51.376;10.874;2023-06-01T19:10:08;3.20;;;3.00;;
46713;SDS011;32445;51.376;10.874;2023-06-01T19:13:10;3.00;;;2.55;;
46713;SDS011;32445;51.376;10.874;2023-06-01T19:19:10;2.67;;;2.47;;
46713;SDS011;32445;51.376;10.874;2023-06-01T19:22:12;2.72;;;2.22;;
46713;SDS011;32445;51.376;10.874;2023-06-01T19:25:12;2.03;;;1.92;;
46713;SDS011;32445;51.376;10.874;2023-06-01T19:28:13;3.73;;;2.50;;
46713;SDS011;32445;51.376;10.874;2023-06-01T19:31:13;2.67;;;2.40;;